sensor_id;sensor_type;location;lat;lon;timestamp;P1;durP1;ratioP1;P2;durP2;ratioP2
23747;SDS011;12054;53.662;10.126;2024-01-07T00:02:25;1.42;;;1.10;;
23747;SDS011;12054;53.662;10.126;2024-01-07T00:04:51;5.00;;;1.83;;
23747;SDS011;12054;53.662;10.126;2024-01-07T00:07:16;3.38;;;1.88;;
23747;SDS011;12054;53.662;10.126;2024-01-07T00:09:42;3.45;;;1.40;;
23747;SDS011;12054;53.662;10.126;2024-01-07T00:12:07;2.47;;;1.83;;
23747;SDS011;12054;53.662;10.126;2024-01-07T00:14:33;4.45;;;2.08;;
23747;SDS011;12054;53.662;10.126;2024-01-07T00:16:58;3.20;;;2.13;;
23747;SDS011;12054;53.662;10.126;2024-01-07T00:19:24;3.47;;;1.85;;
23747;SDS011;12054;53.662;10.126;2024-01-07T00:21:49;4.40;;;1.88;;
23747;SDS011;12054;53.662;10.126;2024-01-07T00:24:15;3.15;;;1.90;;
23747;SDS011;12054;53.662;10.126;2024-01-07T00:26:41;2.42;;;1.65;;
23747;SDS011;12054;53.662;10.126;2024-01-07T00:29:06;3.88;;;2.00;;
23747;SDS011;12054;53.662;10.126;2024-01-07T00:31:32;4.13;;;2.17;;
23747;SDS011;12054;53.662;10.126;2024-01-07T00:33:58;3.17;;;2.08;;
23747;SDS011;12054;53.662;10.126;2024-01-07T00:36:23;3.42;;;1.80;;
23747;SDS011;12054;53.662;10.126;2024-01-07T00:38:49;4.80;;;2.05;;
23747;SDS011;12054;53.662;10.126;2024-01-07T00:41:14;1.95;;;1.30;;
23747;SDS011;12054;53.662;10.126;2024-01-07T00:43:40;3.05;;;1.77;;
23747;SDS011;12054;53.662;10.126;2024-01-07T00:46:06;3.00;;;1.85;;
23747;SDS011;12054;53.662;10.126;2024-01-07T00:48:31;5.55;;;1.85;;
23747;SDS011;12054;53.662;10.126;2024-01-07T00:50:57;3.42;;;1.70;;
23747;SDS011;12054;53.662;10.126;2024-01-07T00:53:22;2.90;;;1.88;;
23747;SDS011;12054;53.662;10.126;2024-01-07T00:55:48;2.97;;;2.03;;
23747;SDS011;12054;53.662;10.126;2024-01-07T00:58:13;4.35;;;2.08;;
23747;SDS011;12054;53.662;10.126;2024-01-07T01:00:39;3.22;;;1.90;;
23747;SDS011;12054;53.662;10.126;2024-01-07T01:03:04;2.53;;;1.55;;
23747;SDS011;12054;53.662;10.126;2024-01-07T01:05:30;2.35;;;1.73;;
23747;SDS011;12054;53.662;10.126;2024-01-07T01:07:55;4.75;;;2.20;;
23747;SDS011;12054;53.662;10.126;2024-01-07T01:10:21;3.88;;;1.83;;
23747;SDS011;12054;53.662;10.126;2024-01-07T01:12:46;2.15;;;1.70;;
23747;SDS011;12054;53.662;10.126;2024-01-07T01:15:12;2.38;;;1.65;;
23747;SDS011;12054;53.662;10.126;2024-01-07T01:17:37;3.70;;;1.60;;
23747;SDS011;12054;53.662;10.126;2024-01-07T01:20:03;3.05;;;1.83;;
23747;SDS011;12054;53.662;10.126;2024-01-07T01:22:29;2.95;;;1.88;;
23747;SDS011;12054;53.662;10.126;2024-01-07T01:24:54;2.92;;;1.70;;
23747;SDS011;12054;53.662;10.126;2024-01-07T01:27:21;3.08;;;1.80;;
23747;SDS011;12054;53.662;10.126;2024-01-07T01:29:46;2.28;;;1.05;;
23747;SDS011;12054;53.662;10.126;2024-01-07T01:32:12;2.88;;;1.73;;
23747;SDS011;12054;53.662;10.126;2024-01-07T01:34:39;4.50;;;1.65;;
23747;SDS011;12054;53.662;10.126;2024-01-07T01:37:07;3.20;;;1.40;;
23747;SDS011;12054;53.662;10.126;2024-01-07T01:39:34;3.67;;;1.83;;
23747;SDS011;12054;53.662;10.126;2024-01-07T01:41:59;2.95;;;1.70;;
23747;SDS011;12054;53.662;10.126;2024-01-07T01:44:25;4.03;;;2.05;;
23747;SDS011;12054;53.662;10.126;2024-01-07T01:46:52;3.58;;;1.90;;
23747;SDS011;12054;53.662;10.126;2024-01-07T01:49:19;3.58;;;2.15;;
23747;SDS011;12054;53.662;10.126;2024-01-07T01:51:44;4.57;;;1.90;;
23747;SDS011;12054;53.662;10.126;2024-01-07T01:54:10;2.45;;;1.60;;
23747;SDS011;12054;53.662;10.126;2024-01-07T01:56:37;2.10;;;1.50;;
23747;SDS011;12054;53.662;10.126;2024-01-07T01:59:03;2.22;;;1.48;;
23747;SDS011;12054;53.662;10.126;2024-01-07T02:01:28;2.17;;;1.58;;
23747;SDS011;12054;53.662;10.126;2024-01-07T02:03:56;5.03;;;1.90;;
23747;SDS011;12054;53.662;10.126;2024-01-07T02:06:22;3.38;;;1.60;;
23747;SDS011;12054;53.662;10.126;2024-01-07T02:08:48;3.60;;;1.48;;
23747;SDS011;12054;53.662;10.126;2024-01-07T02:11:23;2.83;;;1.70;;
23747;SDS011;12054;53.662;10.126;2024-01-07T02:13:48;4.30;;;2.15;;
23747;SDS011;12054;53.662;10.126;2024-01-07T02:16:14;3.20;;;1.67;;
23747;SDS011;12054;53.662;10.126;2024-01-07T02:18:41;2.67;;;1.48;;
23747;SDS011;12054;53.662;10.126;2024-01-07T02:21:08;4.80;;;2.17;;
23747;SDS011;12054;53.662;10.126;2024-01-07T02:23:34;2.13;;;1.63;;
23747;SDS011;12054;53.662;10.126;2024-01-07T02:26:00;4.47;;;1.77;;
23747;SDS011;12054;53.662;10.126;2024-01-07T02:28:25;2.97;;;2.00;;
23747;SDS011;12054;53.662;10.126;2024-01-07T02:30:51;2.92;;;1.88;;
23747;SDS011;12054;53.662;10.126;2024-01-07T02:33:16;4.55;;;1.92;;
23747;SDS011;12054;53.662;10.126;2024-01-07T02:35:42;3.03;;;1.52;;
23747;SDS011;12054;53.662;10.126;2024-01-07T02:38:07;3.33;;;2.08;;
23747;SDS011;12054;53.662;10.126;2024-01-07T02:40:33;3.22;;;2.13;;
23747;SDS011;12054;53.662;10.126;2024-01-07T02:42:58;3.67;;;1.95;;
23747;SDS011;12054;53.662;10.126;2024-01-07T02:45:24;4.80;;;1.70;;
23747;SDS011;12054;53.662;10.126;2024-01-07T02:47:49;2.58;;;1.80;;
23747;SDS011;12054;53.662;10.126;2024-01-07T02:50:15;2.38;;;1.80;;
23747;SDS011;12054;53.662;10.126;2024-01-07T02:52:41;3.40;;;1.80;;
23747;SDS011;12054;53.662;10.126;2024-01-07T02:55:07;2.75;;;1.50;;
23747;SDS011;12054;53.662;10.126;2024-01-07T02:57:33;3.47;;;1.88;;
23747;SDS011;12054;53.662;10.126;2024-01-07T02:59:58;3.00;;;1.92;;
23747;SDS011;12054;53.662;10.126;2024-01-07T03:02:24;2.58;;;1.70;;
23747;SDS011;12054;53.662;10.126;2024-01-07T03:04:49;2.03;;;1.55;;
23747;SDS011;12054;53.662;10.126;2024-01-07T03:07:15;3.60;;;1.70;;
23747;SDS011;12054;53.662;10.126;2024-01-07T03:09:40;3.90;;;1.50;;
23747;SDS011;12054;53.662;10.126;2024-01-07T03:12:06;3.03;;;1.30;;
23747;SDS011;12054;53.662;10.126;2024-01-07T03:14:32;2.70;;;1.63;;
23747;SDS011;12054;53.662;10.126;2024-01-07T03:16:58;1.80;;;1.20;;
23747;SDS011;12054;53.662;10.126;2024-01-07T03:19:23;2.63;;;1.42;;
23747;SDS011;12054;53.662;10.126;2024-01-07T03:21:50;3.53;;;1.73;;
23747;SDS011;12054;53.662;10.126;2024-01-07T03:24:15;4.22;;;2.63;;
23747;SDS011;12054;53.662;10.126;2024-01-07T03:26:41;2.92;;;1.58;;
23747;SDS011;12054;53.662;10.126;2024-01-07T03:29:06;2.20;;;1.20;;
23747;SDS011;12054;53.662;10.126;2024-01-07T03:31:32;2.28;;;1.02;;
23747;SDS011;12054;53.662;10.126;2024-01-07T03:33:58;1.90;;;1.30;;
23747;SDS011;12054;53.662;10.126;2024-01-07T03:36:23;2.45;;;1.48;;
23747;SDS011;12054;53.662;10.126;2024-01-07T03:38:49;2.95;;;1.15;;
23747;SDS011;12054;53.662;10.126;2024-01-07T03:41:18;1.58;;;1.23;;
23747;SDS011;12054;53.662;10.126;2024-01-07T03:43:45;3.40;;;1.58;;
23747;SDS011;12054;53.662;10.126;2024-01-07T03:46:12;2.13;;;1.13;;
23747;SDS011;12054;53.662;10.126;2024-01-07T03:48:37;1.98;;;1.40;;
23747;SDS011;12054;53.662;10.126;2024-01-07T03:51:03;2.67;;;1.50;;
23747;SDS011;12054;53.662;10.126;2024-01-07T03:53:28;1.38;;;0.95;;
23747;SDS011;12054;53.662;10.126;2024-01-07T03:55:54;2.10;;;1.27;;
23747;SDS011;12054;53.662;10.126;2024-01-07T03:58:19;2.67;;;1.15;;
23747;SDS011;12054;53.662;10.126;2024-01-07T04:00:45;3.22;;;1.48;;
23747;SDS011;12054;53.662;10.126;2024-01-07T04:03:10;2.30;;;1.50;;
23747;SDS011;12054;53.662;10.126;2024-01-07T04:05:36;3.85;;;1.55;;
23747;SDS011;12054;53.662;10.126;2024-01-07T04:08:02;2.08;;;1.27;;
23747;SDS011;12054;53.662;10.126;2024-01-07T04:10:28;1.98;;;1.45;;
23747;SDS011;12054;53.662;10.126;2024-01-07T04:12:54;1.75;;;1.35;;
23747;SDS011;12054;53.662;10.126;2024-01-07T04:15:19;2.63;;;1.30;;
23747;SDS011;12054;53.662;10.126;2024-01-07T04:17:46;1.77;;;1.23;;
23747;SDS011;12054;53.662;10.126;2024-01-07T04:20:14;1.88;;;1.42;;
23747;SDS011;12054;53.662;10.126;2024-01-07T04:22:40;2.47;;;1.10;;
23747;SDS011;12054;53.662;10.126;2024-01-07T04:25:05;1.92;;;1.20;;
23747;SDS011;12054;53.662;10.126;2024-01-07T04:27:35;1.88;;;1.27;;
23747;SDS011;12054;53.662;10.126;2024-01-07T04:30:01;2.13;;;1.05;;
23747;SDS011;12054;53.662;10.126;2024-01-07T04:32:27;4.53;;;1.58;;
23747;SDS011;12054;53.662;10.126;2024-01-07T04:34:53;1.50;;;1.20;;
23747;SDS011;12054;53.662;10.126;2024-01-07T04:37:19;3.13;;;1.40;;
23747;SDS011;12054;53.662;10.126;2024-01-07T04:39:44;1.65;;;1.40;;
23747;SDS011;12054;53.662;10.126;2024-01-07T04:42:10;2.10;;;1.55;;
23747;SDS011;12054;53.662;10.126;2024-01-07T04:44:35;1.95;;;1.05;;
23747;SDS011;12054;53.662;10.126;2024-01-07T04:47:01;2.90;;;1.05;;
23747;SDS011;12054;53.662;10.126;2024-01-07T04:49:26;2.83;;;1.17;;
23747;SDS011;12054;53.662;10.126;2024-01-07T04:51:52;2.30;;;1.15;;
23747;SDS011;12054;53.662;10.126;2024-01-07T04:54:17;2.38;;;1.00;;
23747;SDS011;12054;53.662;10.126;2024-01-07T04:56:43;1.55;;;1.05;;
23747;SDS011;12054;53.662;10.126;2024-01-07T04:59:09;1.25;;;0.90;;
23747;SDS011;12054;53.662;10.126;2024-01-07T05:01:34;1.92;;;1.25;;
23747;SDS011;12054;53.662;10.126;2024-01-07T05:04:01;1.50;;;0.98;;
23747;SDS011;12054;53.662;10.126;2024-01-07T05:06:27;1.88;;;0.82;;
23747;SDS011;12054;53.662;10.126;2024-01-07T05:08:52;1.88;;;1.02;;
23747;SDS011;12054;53.662;10.126;2024-01-07T05:11:18;2.85;;;1.00;;
23747;SDS011;12054;53.662;10.126;2024-01-07T05:13:43;2.90;;;1.05;;
23747;SDS011;12054;53.662;10.126;2024-01-07T05:16:09;1.67;;;1.05;;
23747;SDS011;12054;53.662;10.126;2024-01-07T05:18:42;3.47;;;1.00;;
23747;SDS011;12054;53.662;10.126;2024-01-07T05:21:13;1.58;;;1.10;;
23747;SDS011;12054;53.662;10.126;2024-01-07T05:23:43;1.40;;;0.98;;
23747;SDS011;12054;53.662;10.126;2024-01-07T05:26:09;1.52;;;1.20;;
23747;SDS011;12054;53.662;10.126;2024-01-07T05:28:35;2.28;;;1.40;;
23747;SDS011;12054;53.662;10.126;2024-01-07T05:31:01;3.17;;;1.40;;
23747;SDS011;12054;53.662;10.126;2024-01-07T05:33:27;2.95;;;1.30;;
23747;SDS011;12054;53.662;10.126;2024-01-07T05:35:52;2.08;;;1.10;;
23747;SDS011;12054;53.662;10.126;2024-01-07T05:38:18;2.67;;;1.20;;
23747;SDS011;12054;53.662;10.126;2024-01-07T05:40:43;2.58;;;1.35;;
23747;SDS011;12054;53.662;10.126;2024-01-07T05:43:09;1.20;;;1.00;;
23747;SDS011;12054;53.662;10.126;2024-01-07T05:45:34;2.08;;;1.40;;
23747;SDS011;12054;53.662;10.126;2024-01-07T05:48:00;3.78;;;1.40;;
23747;SDS011;12054;53.662;10.126;2024-01-07T05:50:25;1.40;;;1.20;;
23747;SDS011;12054;53.662;10.126;2024-01-07T05:52:51;2.05;;;1.35;;
23747;SDS011;12054;53.662;10.126;2024-01-07T05:55:16;5.28;;;1.77;;
23747;SDS011;12054;53.662;10.126;2024-01-07T05:57:42;2.42;;;1.50;;
23747;SDS011;12054;53.662;10.126;2024-01-07T06:00:08;2.25;;;1.40;;
23747;SDS011;12054;53.662;10.126;2024-01-07T06:02:36;2.22;;;1.27;;
23747;SDS011;12054;53.662;10.126;2024-01-07T06:05:02;3.58;;;1.40;;
23747;SDS011;12054;53.662;10.126;2024-01-07T06:07:28;3.13;;;1.30;;
23747;SDS011;12054;53.662;10.126;2024-01-07T06:09:53;3.95;;;1.55;;
23747;SDS011;12054;53.662;10.126;2024-01-07T06:12:19;2.05;;;1.30;;
23747;SDS011;12054;53.662;10.126;2024-01-07T06:14:44;2.60;;;1.40;;
23747;SDS011;12054;53.662;10.126;2024-01-07T06:17:10;3.72;;;1.50;;
23747;SDS011;12054;53.662;10.126;2024-01-07T06:19:35;5.32;;;1.67;;
23747;SDS011;12054;53.662;10.126;2024-01-07T06:22:01;2.08;;;1.35;;
23747;SDS011;12054;53.662;10.126;2024-01-07T06:24:27;3.22;;;1.50;;
23747;SDS011;12054;53.662;10.126;2024-01-07T06:26:52;3.55;;;1.70;;
23747;SDS011;12054;53.662;10.126;2024-01-07T06:29:18;4.00;;;1.45;;
23747;SDS011;12054;53.662;10.126;2024-01-07T06:31:44;3.22;;;1.77;;
23747;SDS011;12054;53.662;10.126;2024-01-07T06:34:13;5.10;;;1.75;;
23747;SDS011;12054;53.662;10.126;2024-01-07T06:36:40;4.18;;;1.98;;
23747;SDS011;12054;53.662;10.126;2024-01-07T06:39:08;3.28;;;1.58;;
23747;SDS011;12054;53.662;10.126;2024-01-07T06:41:34;2.05;;;1.50;;
23747;SDS011;12054;53.662;10.126;2024-01-07T06:44:01;3.45;;;2.00;;
23747;SDS011;12054;53.662;10.126;2024-01-07T06:46:27;3.33;;;1.98;;
23747;SDS011;12054;53.662;10.126;2024-01-07T06:48:52;2.92;;;2.10;;
23747;SDS011;12054;53.662;10.126;2024-01-07T06:51:18;3.67;;;2.35;;
23747;SDS011;12054;53.662;10.126;2024-01-07T06:53:43;3.50;;;1.90;;
23747;SDS011;12054;53.662;10.126;2024-01-07T06:56:09;5.97;;;2.35;;
23747;SDS011;12054;53.662;10.126;2024-01-07T06:58:34;3.45;;;2.40;;
23747;SDS011;12054;53.662;10.126;2024-01-07T07:01:00;4.15;;;2.65;;
23747;SDS011;12054;53.662;10.126;2024-01-07T07:03:25;4.57;;;2.47;;
23747;SDS011;12054;53.662;10.126;2024-01-07T07:05:51;6.65;;;2.80;;
23747;SDS011;12054;53.662;10.126;2024-01-07T07:08:16;4.88;;;2.28;;
23747;SDS011;12054;53.662;10.126;2024-01-07T07:10:42;4.07;;;2.17;;
23747;SDS011;12054;53.662;10.126;2024-01-07T07:13:07;5.53;;;2.67;;
23747;SDS011;12054;53.662;10.126;2024-01-07T07:15:33;4.22;;;2.78;;
23747;SDS011;12054;53.662;10.126;2024-01-07T07:17:59;5.95;;;2.90;;
23747;SDS011;12054;53.662;10.126;2024-01-07T07:20:24;7.05;;;2.30;;
23747;SDS011;12054;53.662;10.126;2024-01-07T07:22:50;6.35;;;2.83;;
23747;SDS011;12054;53.662;10.126;2024-01-07T07:25:15;5.60;;;3.20;;
23747;SDS011;12054;53.662;10.126;2024-01-07T07:27:41;5.13;;;2.50;;
23747;SDS011;12054;53.662;10.126;2024-01-07T07:30:06;6.30;;;2.75;;
23747;SDS011;12054;53.662;10.126;2024-01-07T07:32:32;5.38;;;2.40;;
23747;SDS011;12054;53.662;10.126;2024-01-07T07:34:58;4.90;;;2.75;;
23747;SDS011;12054;53.662;10.126;2024-01-07T07:37:24;8.77;;;3.10;;
23747;SDS011;12054;53.662;10.126;2024-01-07T07:39:50;4.75;;;2.70;;
23747;SDS011;12054;53.662;10.126;2024-01-07T07:42:15;6.32;;;2.60;;
23747;SDS011;12054;53.662;10.126;2024-01-07T07:44:41;5.72;;;2.72;;
23747;SDS011;12054;53.662;10.126;2024-01-07T07:47:07;4.32;;;2.50;;
23747;SDS011;12054;53.662;10.126;2024-01-07T07:49:33;4.60;;;2.85;;
23747;SDS011;12054;53.662;10.126;2024-01-07T07:52:00;4.70;;;2.80;;
23747;SDS011;12054;53.662;10.126;2024-01-07T07:54:26;7.13;;;2.90;;
23747;SDS011;12054;53.662;10.126;2024-01-07T07:56:51;4.82;;;2.90;;
23747;SDS011;12054;53.662;10.126;2024-01-07T07:59:17;4.90;;;2.53;;
23747;SDS011;12054;53.662;10.126;2024-01-07T08:01:42;4.70;;;2.38;;
23747;SDS011;12054;53.662;10.126;2024-01-07T08:04:08;6.32;;;2.80;;
23747;SDS011;12054;53.662;10.126;2024-01-07T08:06:35;4.35;;;2.60;;
23747;SDS011;12054;53.662;10.126;2024-01-07T08:09:00;3.90;;;2.78;;
23747;SDS011;12054;53.662;10.126;2024-01-07T08:11:26;6.40;;;3.00;;
23747;SDS011;12054;53.662;10.126;2024-01-07T08:13:51;5.82;;;2.83;;
23747;SDS011;12054;53.662;10.126;2024-01-07T08:16:17;4.20;;;2.53;;
23747;SDS011;12054;53.662;10.126;2024-01-07T08:18:43;5.55;;;2.92;;
23747;SDS011;12054;53.662;10.126;2024-01-07T08:21:09;4.47;;;2.67;;
23747;SDS011;12054;53.662;10.126;2024-01-07T08:23:35;5.40;;;2.67;;
23747;SDS011;12054;53.662;10.126;2024-01-07T08:26:00;4.05;;;2.55;;
23747;SDS011;12054;53.662;10.126;2024-01-07T08:28:27;4.35;;;2.40;;
23747;SDS011;12054;53.662;10.126;2024-01-07T08:30:52;6.40;;;2.58;;
23747;SDS011;12054;53.662;10.126;2024-01-07T08:33:18;3.58;;;2.70;;
23747;SDS011;12054;53.662;10.126;2024-01-07T08:35:44;5.35;;;2.92;;
23747;SDS011;12054;53.662;10.126;2024-01-07T08:38:09;4.70;;;2.50;;
23747;SDS011;12054;53.662;10.126;2024-01-07T08:40:35;5.47;;;3.15;;
23747;SDS011;12054;53.662;10.126;2024-01-07T08:43:01;4.47;;;1.55;;
23747;SDS011;12054;53.662;10.126;2024-01-07T08:45:27;6.20;;;3.05;;
23747;SDS011;12054;53.662;10.126;2024-01-07T08:47:53;3.20;;;2.17;;
23747;SDS011;12054;53.662;10.126;2024-01-07T08:50:18;3.88;;;2.42;;
23747;SDS011;12054;53.662;10.126;2024-01-07T08:52:43;4.18;;;2.55;;
23747;SDS011;12054;53.662;10.126;2024-01-07T08:55:11;5.75;;;2.53;;
23747;SDS011;12054;53.662;10.126;2024-01-07T08:57:37;5.32;;;2.22;;
23747;SDS011;12054;53.662;10.126;2024-01-07T09:00:06;3.67;;;2.25;;
23747;SDS011;12054;53.662;10.126;2024-01-07T09:02:35;6.90;;;2.50;;
23747;SDS011;12054;53.662;10.126;2024-01-07T09:05:01;3.10;;;1.92;;
23747;SDS011;12054;53.662;10.126;2024-01-07T09:07:26;4.63;;;2.30;;
23747;SDS011;12054;53.662;10.126;2024-01-07T09:09:52;4.28;;;2.10;;
23747;SDS011;12054;53.662;10.126;2024-01-07T09:12:20;3.13;;;2.15;;
23747;SDS011;12054;53.662;10.126;2024-01-07T09:14:45;2.80;;;2.05;;
23747;SDS011;12054;53.662;10.126;2024-01-07T09:17:11;4.50;;;2.30;;
23747;SDS011;12054;53.662;10.126;2024-01-07T09:19:37;4.40;;;2.58;;
23747;SDS011;12054;53.662;10.126;2024-01-07T09:22:03;4.30;;;2.50;;
23747;SDS011;12054;53.662;10.126;2024-01-07T09:24:29;6.57;;;2.92;;
23747;SDS011;12054;53.662;10.126;2024-01-07T09:26:55;5.00;;;2.63;;
23747;SDS011;12054;53.662;10.126;2024-01-07T09:29:22;5.07;;;2.20;;
23747;SDS011;12054;53.662;10.126;2024-01-07T09:31:47;4.22;;;2.70;;
23747;SDS011;12054;53.662;10.126;2024-01-07T09:34:13;4.55;;;2.58;;
23747;SDS011;12054;53.662;10.126;2024-01-07T09:36:38;4.60;;;2.05;;
23747;SDS011;12054;53.662;10.126;2024-01-07T09:39:05;4.38;;;2.03;;
23747;SDS011;12054;53.662;10.126;2024-01-07T09:41:31;4.40;;;1.98;;
23747;SDS011;12054;53.662;10.126;2024-01-07T09:43:57;3.92;;;2.45;;
23747;SDS011;12054;53.662;10.126;2024-01-07T09:46:24;3.17;;;2.30;;
23747;SDS011;12054;53.662;10.126;2024-01-07T09:48:49;6.32;;;2.28;;
23747;SDS011;12054;53.662;10.126;2024-01-07T09:51:15;3.88;;;2.10;;
23747;SDS011;12054;53.662;10.126;2024-01-07T09:53:44;5.20;;;2.22;;
23747;SDS011;12054;53.662;10.126;2024-01-07T09:56:12;3.97;;;2.53;;
23747;SDS011;12054;53.662;10.126;2024-01-07T09:58:48;5.93;;;2.28;;
23747;SDS011;12054;53.662;10.126;2024-01-07T10:01:15;3.03;;;2.17;;
23747;SDS011;12054;53.662;10.126;2024-01-07T10:03:42;4.13;;;2.25;;
23747;SDS011;12054;53.662;10.126;2024-01-07T10:06:07;3.20;;;1.90;;
23747;SDS011;12054;53.662;10.126;2024-01-07T10:08:33;3.33;;;1.80;;
23747;SDS011;12054;53.662;10.126;2024-01-07T10:10:59;3.80;;;2.05;;
23747;SDS011;12054;53.662;10.126;2024-01-07T10:13:26;3.65;;;1.85;;
23747;SDS011;12054;53.662;10.126;2024-01-07T10:15:52;3.53;;;1.90;;
23747;SDS011;12054;53.662;10.126;2024-01-07T10:18:18;2.95;;;1.90;;
23747;SDS011;12054;53.662;10.126;2024-01-07T10:20:43;4.03;;;2.05;;
23747;SDS011;12054;53.662;10.126;2024-01-07T10:23:09;3.08;;;1.73;;
23747;SDS011;12054;53.662;10.126;2024-01-07T10:25:35;4.22;;;1.50;;
23747;SDS011;12054;53.662;10.126;2024-01-07T10:28:01;3.78;;;2.10;;
23747;SDS011;12054;53.662;10.126;2024-01-07T10:30:28;3.85;;;2.05;;
23747;SDS011;12054;53.662;10.126;2024-01-07T10:32:55;3.55;;;2.05;;
23747;SDS011;12054;53.662;10.126;2024-01-07T10:35:22;3.20;;;2.10;;
23747;SDS011;12054;53.662;10.126;2024-01-07T10:37:58;3.90;;;2.10;;
23747;SDS011;12054;53.662;10.126;2024-01-07T10:40:25;3.25;;;2.00;;
23747;SDS011;12054;53.662;10.126;2024-01-07T10:42:51;2.75;;;1.90;;
23747;SDS011;12054;53.662;10.126;2024-01-07T10:45:19;3.65;;;2.58;;
23747;SDS011;12054;53.662;10.126;2024-01-07T10:47:45;3.38;;;2.42;;
23747;SDS011;12054;53.662;10.126;2024-01-07T10:50:14;3.58;;;2.13;;
23747;SDS011;12054;53.662;10.126;2024-01-07T10:52:42;3.15;;;2.00;;
23747;SDS011;12054;53.662;10.126;2024-01-07T10:55:12;3.72;;;2.20;;
23747;SDS011;12054;53.662;10.126;2024-01-07T10:57:43;4.35;;;2.58;;
23747;SDS011;12054;53.662;10.126;2024-01-07T11:00:11;3.72;;;1.95;;
23747;SDS011;12054;53.662;10.126;2024-01-07T11:05:31;3.10;;;2.20;;
23747;SDS011;12054;53.662;10.126;2024-01-07T11:13:48;5.20;;;2.13;;
23747;SDS011;12054;53.662;10.126;2024-01-07T11:16:14;3.45;;;2.08;;
23747;SDS011;12054;53.662;10.126;2024-01-07T11:19:06;3.42;;;2.20;;
23747;SDS011;12054;53.662;10.126;2024-01-07T11:21:31;3.67;;;2.08;;
23747;SDS011;12054;53.662;10.126;2024-01-07T11:23:57;4.47;;;2.80;;
23747;SDS011;12054;53.662;10.126;2024-01-07T11:26:22;3.13;;;1.90;;
23747;SDS011;12054;53.662;10.126;2024-01-07T11:28:51;5.25;;;1.83;;
23747;SDS011;12054;53.662;10.126;2024-01-07T11:31:19;4.38;;;1.95;;
23747;SDS011;12054;53.662;10.126;2024-01-07T11:33:46;5.13;;;2.15;;
23747;SDS011;12054;53.662;10.126;2024-01-07T11:36:15;4.85;;;1.98;;
23747;SDS011;12054;53.662;10.126;2024-01-07T11:38:45;2.88;;;1.88;;
23747;SDS011;12054;53.662;10.126;2024-01-07T11:41:14;3.03;;;1.60;;
23747;SDS011;12054;53.662;10.126;2024-01-07T11:43:55;2.88;;;1.77;;
23747;SDS011;12054;53.662;10.126;2024-01-07T11:46:24;2.40;;;1.60;;
23747;SDS011;12054;53.662;10.126;2024-01-07T11:48:53;5.75;;;2.28;;
23747;SDS011;12054;53.662;10.126;2024-01-07T11:51:24;3.65;;;1.60;;
23747;SDS011;12054;53.662;10.126;2024-01-07T11:53:59;3.83;;;2.13;;
23747;SDS011;12054;53.662;10.126;2024-01-07T11:56:26;3.63;;;1.52;;
23747;SDS011;12054;53.662;10.126;2024-01-07T11:58:52;1.88;;;1.38;;
23747;SDS011;12054;53.662;10.126;2024-01-07T12:01:18;2.72;;;1.60;;
23747;SDS011;12054;53.662;10.126;2024-01-07T12:03:44;3.88;;;2.05;;
23747;SDS011;12054;53.662;10.126;2024-01-07T12:06:10;3.70;;;1.88;;
23747;SDS011;12054;53.662;10.126;2024-01-07T12:08:39;3.03;;;2.10;;
23747;SDS011;12054;53.662;10.126;2024-01-07T12:11:08;3.05;;;1.65;;
23747;SDS011;12054;53.662;10.126;2024-01-07T12:13:38;2.15;;;1.58;;
23747;SDS011;12054;53.662;10.126;2024-01-07T12:16:05;2.80;;;2.20;;
23747;SDS011;12054;53.662;10.126;2024-01-07T12:18:32;2.65;;;1.80;;
23747;SDS011;12054;53.662;10.126;2024-01-07T12:20:58;3.50;;;1.77;;
23747;SDS011;12054;53.662;10.126;2024-01-07T12:23:27;2.75;;;1.90;;
23747;SDS011;12054;53.662;10.126;2024-01-07T12:25:53;3.00;;;2.00;;
23747;SDS011;12054;53.662;10.126;2024-01-07T12:28:20;3.35;;;1.98;;
23747;SDS011;12054;53.662;10.126;2024-01-07T12:30:49;3.42;;;1.73;;
23747;SDS011;12054;53.662;10.126;2024-01-07T12:33:16;3.35;;;1.73;;
23747;SDS011;12054;53.662;10.126;2024-01-07T12:35:47;4.28;;;2.15;;
23747;SDS011;12054;53.662;10.126;2024-01-07T12:38:13;2.78;;;1.60;;
23747;SDS011;12054;53.662;10.126;2024-01-07T12:40:39;4.65;;;1.83;;
23747;SDS011;12054;53.662;10.126;2024-01-07T12:43:05;3.10;;;1.70;;
23747;SDS011;12054;53.662;10.126;2024-01-07T12:45:34;4.38;;;2.33;;
23747;SDS011;12054;53.662;10.126;2024-01-07T12:47:59;4.40;;;1.92;;
23747;SDS011;12054;53.662;10.126;2024-01-07T12:50:27;2.22;;;1.48;;
23747;SDS011;12054;53.662;10.126;2024-01-07T12:52:54;3.17;;;1.80;;
23747;SDS011;12054;53.662;10.126;2024-01-07T12:55:22;2.22;;;1.30;;
23747;SDS011;12054;53.662;10.126;2024-01-07T12:57:47;1.55;;;1.40;;
23747;SDS011;12054;53.662;10.126;2024-01-07T13:00:14;2.85;;;1.70;;
23747;SDS011;12054;53.662;10.126;2024-01-07T13:02:40;3.15;;;1.65;;
23747;SDS011;12054;53.662;10.126;2024-01-07T13:05:06;3.03;;;1.75;;
23747;SDS011;12054;53.662;10.126;2024-01-07T13:07:32;3.03;;;1.67;;
23747;SDS011;12054;53.662;10.126;2024-01-07T13:09:57;2.33;;;1.50;;
23747;SDS011;12054;53.662;10.126;2024-01-07T13:12:23;2.70;;;1.65;;
23747;SDS011;12054;53.662;10.126;2024-01-07T13:14:49;2.08;;;1.42;;
23747;SDS011;12054;53.662;10.126;2024-01-07T13:17:14;3.88;;;2.17;;
23747;SDS011;12054;53.662;10.126;2024-01-07T13:19:40;2.15;;;1.40;;
23747;SDS011;12054;53.662;10.126;2024-01-07T13:22:06;3.03;;;1.58;;
23747;SDS011;12054;53.662;10.126;2024-01-07T13:24:32;1.98;;;1.08;;
23747;SDS011;12054;53.662;10.126;2024-01-07T13:26:57;2.92;;;1.73;;
23747;SDS011;12054;53.662;10.126;2024-01-07T13:29:23;5.78;;;1.70;;
23747;SDS011;12054;53.662;10.126;2024-01-07T13:31:49;2.33;;;1.90;;
23747;SDS011;12054;53.662;10.126;2024-01-07T13:34:15;2.97;;;1.65;;
23747;SDS011;12054;53.662;10.126;2024-01-07T13:36:42;2.72;;;1.85;;
23747;SDS011;12054;53.662;10.126;2024-01-07T13:39:08;2.88;;;2.10;;
23747;SDS011;12054;53.662;10.126;2024-01-07T13:41:34;3.40;;;1.65;;
23747;SDS011;12054;53.662;10.126;2024-01-07T13:44:00;2.70;;;1.75;;
23747;SDS011;12054;53.662;10.126;2024-01-07T13:46:28;3.60;;;1.80;;
23747;SDS011;12054;53.662;10.126;2024-01-07T13:48:53;4.47;;;1.98;;
23747;SDS011;12054;53.662;10.126;2024-01-07T13:51:19;2.75;;;1.70;;
23747;SDS011;12054;53.662;10.126;2024-01-07T13:53:44;3.47;;;1.48;;
23747;SDS011;12054;53.662;10.126;2024-01-07T13:56:13;2.17;;;1.48;;
23747;SDS011;12054;53.662;10.126;2024-01-07T13:58:38;2.17;;;1.40;;
23747;SDS011;12054;53.662;10.126;2024-01-07T14:01:04;1.05;;;1.00;;
23747;SDS011;12054;53.662;10.126;2024-01-07T14:03:32;1.15;;;0.90;;
23747;SDS011;12054;53.662;10.126;2024-01-07T14:05:58;1.77;;;1.10;;
23747;SDS011;12054;53.662;10.126;2024-01-07T14:08:25;2.63;;;0.90;;
23747;SDS011;12054;53.662;10.126;2024-01-07T14:10:51;2.45;;;1.63;;
23747;SDS011;12054;53.662;10.126;2024-01-07T14:13:17;2.35;;;1.40;;
23747;SDS011;12054;53.662;10.126;2024-01-07T14:15:42;2.55;;;1.75;;
23747;SDS011;12054;53.662;10.126;2024-01-07T14:18:08;4.60;;;1.80;;
23747;SDS011;12054;53.662;10.126;2024-01-07T14:20:35;3.30;;;2.00;;
23747;SDS011;12054;53.662;10.126;2024-01-07T14:23:01;4.63;;;2.28;;
23747;SDS011;12054;53.662;10.126;2024-01-07T14:25:27;3.83;;;2.10;;
23747;SDS011;12054;53.662;10.126;2024-01-07T14:27:52;3.78;;;2.08;;
23747;SDS011;12054;53.662;10.126;2024-01-07T14:30:18;3.65;;;1.65;;
23747;SDS011;12054;53.662;10.126;2024-01-07T14:32:43;4.28;;;1.92;;
23747;SDS011;12054;53.662;10.126;2024-01-07T14:35:10;2.72;;;1.80;;
23747;SDS011;12054;53.662;10.126;2024-01-07T14:37:38;4.03;;;1.83;;